Zim Chicago — A8SI9 — position and weather

sailwx.info

Track history (hours):
 
Tides and Currents Weather Stations Pressure Air Temp Water Temp Dewpoint Dewpoint Depression Visibility Wind Speed Wind Dir Waves Ship Positions

Zim Chicago

Last reported at 2016-Jan-21 14:11 UTC. Time now 2016-Feb-06 00:24 UTC.
Position S 24°32' W 045°60'.
Warning: this ship's position is 15 days out of date.

Length 334 m; draft 11.4 m.

Type: Cargo ship. MMSI: 636014223.

Date/timePositionNaut miles runAvg speedWind from/ knotsBaromVisibWave heightAir tempDewpointWater temp
2016-Jan-21 14:11S 24°32' W 045°60'1015.8
2016-Jan-21 13:33S 24°27' W 046°09'1615.6
2016-Jan-21 12:33S 24°16' W 046°21'1514.7
2016-Jan-21 11:33S 24°01' W 046°20'4 4.0
2016-Jan-21 10:33S 23°58' W 046°18'0 0.0
2016-Jan-21 07:11S 23°58' W 046°18'0 0.0
2016-Jan-21 05:29S 23°58' W 046°18'0 0.0
2016-Jan-21 02:29S 23°58' W 046°18'0 0.0
2016-Jan-21 00:29S 23°58' W 046°18'0 0.0
2016-Jan-20 23:14S 23°58' W 046°18'0 0.0
2016-Jan-20 21:23S 23°58' W 046°18'0 0.0
2016-Jan-20 19:29S 23°58' W 046°18'0 0.0
2016-Jan-20 18:11S 23°58' W 046°18'0 0.0
2016-Jan-20 17:32S 23°58' W 046°18'0 0.0
2016-Jan-20 16:17S 23°58' W 046°18'0 0.0
2016-Jan-20 14:23S 23°58' W 046°18'0 0.0
2016-Jan-20 10:08S 23°58' W 046°18'0 0.0
2016-Jan-20 08:32S 23°58' W 046°18'0 0.0
2016-Jan-20 07:32S 23°58' W 046°18'0 0.0
2016-Jan-20 06:29S 23°58' W 046°18'0 0.0
2016-Jan-20 04:29S 23°58' W 046°18'0 0.0
2016-Jan-20 03:21S 23°58' W 046°18'4 4.5
2016-Jan-20 02:33S 24°00' W 046°20'7 6.7
2016-Jan-20 01:32S 24°07' W 046°20'0 0.0
2016-Jan-20 00:29S 24°07' W 046°20'0 0.0
2016-Jan-19 23:32S 24°07' W 046°20'0 0.0
2016-Jan-19 22:32S 24°07' W 046°20'0 0.0
2016-Jan-19 21:32S 24°07' W 046°20'0 0.0
2016-Jan-19 20:32S 24°07' W 046°20'0 0.0
2016-Jan-19 19:32S 24°07' W 046°20'0 0.0
2016-Jan-19 18:32S 24°07' W 046°20'0 0.0
2016-Jan-19 16:32S 24°07' W 046°20'0 0.0
2016-Jan-19 15:29S 24°07' W 046°20'0 0.0
2016-Jan-19 14:32S 24°07' W 046°20'0 0.0
2016-Jan-19 13:32S 24°07' W 046°20'0 0.0
2016-Jan-19 12:29S 24°07' W 046°20'0 0.0
2016-Jan-19 11:32S 24°07' W 046°20'0 0.0
2016-Jan-19 10:20S 24°07' W 046°20'5 6.3
2016-Jan-19 09:33S 24°11' W 046°23'1211.9
2016-Jan-19 08:33S 24°21' W 046°29'1211.7
2016-Jan-19 07:33S 24°32' W 046°35'1211.8
2016-Jan-19 06:33S 24°39' W 046°45'1211.6
2016-Jan-19 05:32S 24°46' W 046°56'  
2016-Jan-16 03:25S 27°19' W 048°11'1112.5
2016-Jan-16 02:33S 27°30' W 048°12'1312.6
2016-Jan-16 01:33S 27°42' W 048°12'1312.6
2016-Jan-16 00:33S 27°55' W 048°12'  
Track history (hours):
 
Tides and Currents Weather Stations Pressure Air Temp Water Temp Dewpoint Dewpoint Depression Visibility Wind Speed Wind Dir Waves Ship Positions

Zim Chicago

Last reported at 2016-Jan-21 14:11 UTC. Time now 2016-Feb-06 00:24 UTC.
Position S 24°32' W 045°60'.
Warning: this ship's position is 15 days out of date.

Length 334 m; draft 11.4 m.

Type: Cargo ship. MMSI: 636014223.

Date/timePositionNaut miles runAvg speedWind from/ knotsBaromVisibWave heightAir tempDewpointWater temp
2016-Jan-21 14:11S 24°32' W 045°60'1015.8
2016-Jan-21 13:33S 24°27' W 046°09'1615.6
2016-Jan-21 12:33S 24°16' W 046°21'1514.7
2016-Jan-21 11:33S 24°01' W 046°20'4 4.0
2016-Jan-21 10:33S 23°58' W 046°18'0 0.0
2016-Jan-21 07:11S 23°58' W 046°18'0 0.0
2016-Jan-21 05:29S 23°58' W 046°18'0 0.0
2016-Jan-21 02:29S 23°58' W 046°18'0 0.0
2016-Jan-21 00:29S 23°58' W 046°18'0 0.0
2016-Jan-20 23:14S 23°58' W 046°18'0 0.0
2016-Jan-20 21:23S 23°58' W 046°18'0 0.0
2016-Jan-20 19:29S 23°58' W 046°18'0 0.0
2016-Jan-20 18:11S 23°58' W 046°18'0 0.0
2016-Jan-20 17:32S 23°58' W 046°18'0 0.0
2016-Jan-20 16:17S 23°58' W 046°18'0 0.0
2016-Jan-20 14:23S 23°58' W 046°18'0 0.0
2016-Jan-20 10:08S 23°58' W 046°18'0 0.0
2016-Jan-20 08:32S 23°58' W 046°18'0 0.0
2016-Jan-20 07:32S 23°58' W 046°18'0 0.0
2016-Jan-20 06:29S 23°58' W 046°18'0 0.0
2016-Jan-20 04:29S 23°58' W 046°18'0 0.0
2016-Jan-20 03:21S 23°58' W 046°18'4 4.5
2016-Jan-20 02:33S 24°00' W 046°20'7 6.7
2016-Jan-20 01:32S 24°07' W 046°20'0 0.0
2016-Jan-20 00:29S 24°07' W 046°20'0 0.0
2016-Jan-19 23:32S 24°07' W 046°20'0 0.0
2016-Jan-19 22:32S 24°07' W 046°20'0 0.0
2016-Jan-19 21:32S 24°07' W 046°20'0 0.0
2016-Jan-19 20:32S 24°07' W 046°20'0 0.0
2016-Jan-19 19:32S 24°07' W 046°20'0 0.0
2016-Jan-19 18:32S 24°07' W 046°20'0 0.0
2016-Jan-19 16:32S 24°07' W 046°20'0 0.0
2016-Jan-19 15:29S 24°07' W 046°20'0 0.0
2016-Jan-19 14:32S 24°07' W 046°20'0 0.0
2016-Jan-19 13:32S 24°07' W 046°20'0 0.0
2016-Jan-19 12:29S 24°07' W 046°20'0 0.0
2016-Jan-19 11:32S 24°07' W 046°20'0 0.0
2016-Jan-19 10:20S 24°07' W 046°20'5 6.3
2016-Jan-19 09:33S 24°11' W 046°23'1211.9
2016-Jan-19 08:33S 24°21' W 046°29'1211.7
2016-Jan-19 07:33S 24°32' W 046°35'1211.8
2016-Jan-19 06:33S 24°39' W 046°45'1211.6
2016-Jan-19 05:32S 24°46' W 046°56'  
2016-Jan-16 03:25S 27°19' W 048°11'1112.5
2016-Jan-16 02:33S 27°30' W 048°12'1312.6
2016-Jan-16 01:33S 27°42' W 048°12'1312.6
2016-Jan-16 00:33S 27°55' W 048°12'  

Dump ship's entire track history